Time;durP1;ratioP1;P1;durP2;ratioP2;P2;SDS_P1;SDS_P2;PMS_P1;PMS_P2;Temp;Humidity;BMP_temperature;BMP_pressure;BME280_temperature;BME280_humidity;BME280_pressure;Samples;Min_cycle;Max_cycle;Signal;HPM_P1;HPM_P2
2022/02/06 00:01:39;;;;;;;1.92;1.10;;;18.10;59.00;;;;;;5036436;28;20160;-82
2022/02/06 00:04:06;;;;;;;2.90;0.77;;;18.10;59.50;;;;;;5020113;28;20174;-82
2022/02/06 00:06:35;;;;;;;0.85;0.80;;;18.10;59.60;;;;;;5019191;28;20269;-82
2022/02/06 00:09:00;;;;;;;1.10;0.73;;;18.00;59.40;;;;;;5020563;28;20185;-81
2022/02/06 00:11:26;;;;;;;2.97;1.25;;;18.10;59.20;;;;;;5089657;28;20175;-82
2022/02/06 00:13:52;;;;;;;3.30;1.17;;;18.10;59.40;;;;;;5073142;28;20260;-82
2022/02/06 00:16:17;;;;;;;1.75;1.02;;;18.10;59.40;;;;;;5072642;28;20164;-82
2022/02/06 00:18:44;;;;;;;1.70;0.85;;;18.00;59.60;;;;;;5072716;28;20157;-81
2022/02/06 00:21:14;;;;;;;3.03;1.30;;;18.00;59.50;;;;;;5055903;28;20169;-82
2022/02/06 00:23:41;;;;;;;1.52;0.93;;;18.00;59.20;;;;;;5072585;28;20150;-82
2022/02/06 00:26:15;;;;;;;1.63;1.05;;;18.00;59.20;;;;;;5089584;28;20188;-81
2022/02/06 00:28:54;;;;;;;1.23;0.73;;;18.10;60.10;;;;;;5073966;28;20172;-82
2022/02/06 00:31:33;;;;;;;1.65;0.90;;;18.00;59.50;;;;;;5072747;28;20142;-81
2022/02/06 00:39:17;;;;;;;1.35;0.90;;;18.00;59.20;;;;;;5042199;28;20655;-82
2022/02/06 00:41:43;;;;;;;3.03;1.30;;;18.00;59.20;;;;;;5072362;28;20157;-82
2022/02/06 00:44:09;;;;;;;2.00;0.95;;;18.00;59.30;;;;;;5055487;28;20169;-82
2022/02/06 00:46:39;;;;;;;2.55;0.90;;;18.00;59.10;;;;;;5071454;28;20204;-81
2022/02/06 00:49:14;;;;;;;2.50;0.90;;;18.10;59.10;;;;;;5038369;28;20280;-82
2022/02/06 00:54:20;;;;;;;1.73;1.10;;;18.00;59.40;;;;;;5041692;28;20212;-81
2022/02/06 00:56:46;;;;;;;1.73;1.05;;;18.00;59.20;;;;;;5038120;28;20185;-82
2022/02/06 00:59:12;;;;;;;1.70;0.90;;;18.00;59.30;;;;;;5055367;28;20268;-82
2022/02/06 01:01:41;;;;;;;2.17;1.17;;;18.00;59.20;;;;;;5071956;28;20160;-82
2022/02/06 01:04:07;;;;;;;1.75;1.10;;;18.00;59.30;;;;;;5055338;28;20223;-82
2022/02/06 01:06:33;;;;;;;1.98;0.80;;;17.90;59.10;;;;;;5055476;28;20224;-82
2022/02/06 01:08:59;;;;;;;1.95;1.00;;;18.00;59.50;;;;;;5073031;28;20216;-82
2022/02/06 01:11:25;;;;;;;3.38;1.00;;;17.90;59.50;;;;;;5073181;28;20251;-82
2022/02/06 01:14:08;;;;;;;2.38;0.88;;;17.90;59.50;;;;;;5055242;28;20689;-82
2022/02/06 01:16:40;;;;;;;1.08;0.93;;;17.90;59.70;;;;;;5026127;28;20184;-81
2022/02/06 01:19:11;;;;;;;2.05;1.02;;;17.90;59.30;;;;;;5038557;28;20644;-82
2022/02/06 01:21:47;;;;;;;1.42;0.90;;;17.90;59.20;;;;;;5071907;28;20157;-81
2022/02/06 01:26:55;;;;;;;2.85;1.05;;;17.90;59.50;;;;;;5087126;28;20154;-82
2022/02/06 01:32:09;;;;;;;1.95;1.00;;;17.90;59.30;;;;;;5071967;28;20160;-82
2022/02/06 01:34:43;;;;;;;2.28;0.98;;;17.90;59.20;;;;;;5087143;28;20206;-82
2022/02/06 01:42:36;;;;;;;2.83;1.10;;;17.90;59.30;;;;;;5071658;28;20648;-82
2022/02/06 01:45:28;;;;;;;1.85;0.88;;;17.90;59.10;;;;;;5054771;28;20646;-82
2022/02/06 02:01:21;;;;;;;1.63;0.98;;;17.90;59.00;;;;;;5075495;28;20153;-82
2022/02/06 02:03:57;;;;;;;2.55;1.20;;;17.90;59.10;;;;;;5091093;28;20153;-81
2022/02/06 02:09:26;;;;;;;1.45;0.75;;;17.90;59.40;;;;;;5075011;28;20203;-82
2022/02/06 02:12:00;;;;;;;1.38;0.93;;;17.80;59.60;;;;;;5089222;28;20231;-82
2022/02/06 02:14:54;;;;;;;2.47;0.98;;;17.80;59.90;;;;;;5075342;28;20150;-82
2022/02/06 02:20:17;;;;;;;2.50;0.77;;;17.80;59.50;;;;;;5075200;28;20153;-82
2022/02/06 02:31:27;;;;;;;1.63;1.17;;;17.80;59.80;;;;;;5045947;28;20596;-81
2022/02/06 02:42:54;;;;;;;2.80;1.13;;;17.70;60.00;;;;;;5046505;28;20181;-82
2022/02/06 02:44:57;;;;;;;2.17;1.10;;;17.80;59.70;;;;;;5088866;28;20153;-81
2022/02/06 02:47:20;;;;;;;1.33;0.90;;;17.70;59.60;;;;;;5088444;28;20173;-81
2022/02/06 02:49:57;;;;;;;2.05;1.00;;;17.70;59.90;;;;;;5074666;28;20592;-82
2022/02/06 02:52:41;;;;;;;2.00;1.05;;;17.80;59.80;;;;;;5057527;28;20165;-82
2022/02/06 03:00:40;;;;;;;1.63;1.00;;;17.70;59.50;;;;;;5044232;28;20173;-82
2022/02/06 03:05:49;;;;;;;1.73;0.90;;;17.70;59.30;;;;;;5074003;28;20264;-82
2022/02/06 03:08:16;;;;;;;1.98;0.90;;;17.70;59.10;;;;;;5024519;28;20224;-82
2022/02/06 03:10:44;;;;;;;2.20;0.95;;;17.80;59.00;;;;;;5040461;28;20217;-82
2022/02/06 03:13:15;;;;;;;1.52;0.93;;;17.80;59.60;;;;;;5020319;28;20529;-82
2022/02/06 03:15:46;;;;;;;1.23;0.80;;;17.80;59.70;;;;;;5020812;28;20197;-82
2022/02/06 03:18:19;;;;;;;1.42;0.95;;;17.80;59.40;;;;;;5004911;28;20182;-82
2022/02/06 03:20:45;;;;;;;2.05;1.10;;;17.80;59.00;;;;;;5053906;28;20189;-82
2022/02/06 03:23:12;;;;;;;1.05;0.88;;;17.80;59.10;;;;;;5037105;28;20169;-82
2022/02/06 03:25:46;;;;;;;1.92;0.95;;;17.80;58.70;;;;;;5037018;28;20575;-82
2022/02/06 03:28:12;;;;;;;1.63;1.10;;;17.80;59.10;;;;;;5053730;28;20150;-81
2022/02/06 03:30:38;;;;;;;2.15;1.00;;;17.80;59.30;;;;;;5053715;28;20671;-82
2022/02/06 03:33:04;;;;;;;1.90;1.20;;;17.80;59.80;;;;;;5070784;28;20533;-82
2022/02/06 03:35:30;;;;;;;1.20;0.90;;;17.70;59.40;;;;;;5053544;28;20169;-82
2022/02/06 03:37:55;;;;;;;2.63;1.00;;;17.70;59.50;;;;;;5037361;28;20170;-82
2022/02/06 03:40:25;;;;;;;1.40;0.82;;;17.70;60.00;;;;;;5054734;28;20244;-82
2022/02/06 03:43:14;;;;;;;2.05;1.05;;;17.60;59.40;;;;;;5054627;28;20680;-82
2022/02/06 03:45:44;;;;;;;1.65;1.00;;;17.70;59.80;;;;;;5053321;28;20202;-82
2022/02/06 03:48:22;;;;;;;1.65;0.90;;;17.70;60.00;;;;;;5053385;28;20147;-82
2022/02/06 03:50:53;;;;;;;1.48;0.90;;;17.70;59.70;;;;;;5036589;28;20158;-82
2022/02/06 03:53:22;;;;;;;1.55;0.80;;;17.70;59.40;;;;;;5053392;28;20601;-82
2022/02/06 03:55:48;;;;;;;1.75;0.90;;;17.70;59.90;;;;;;5069510;28;20158;-82
2022/02/06 03:58:14;;;;;;;1.13;0.80;;;17.70;59.70;;;;;;5053725;28;20494;-82
2022/02/06 04:00:39;;;;;;;2.15;0.93;;;17.70;60.00;;;;;;5069876;28;20220;-82
2022/02/06 04:03:05;;;;;;;1.33;0.93;;;17.60;60.10;;;;;;5052915;28;20212;-81
2022/02/06 04:05:31;;;;;;;1.10;0.80;;;17.70;59.30;;;;;;5052836;28;20652;-82
2022/02/06 04:07:57;;;;;;;1.80;1.10;;;17.70;59.80;;;;;;5053005;28;20154;-82
2022/02/06 04:10:22;;;;;;;2.80;1.10;;;17.60;60.00;;;;;;5039523;28;20217;-82
2022/02/06 04:12:50;;;;;;;2.28;0.90;;;17.70;59.10;;;;;;5056257;28;20162;-81
2022/02/06 04:15:26;;;;;;;0.98;0.77;;;17.70;59.70;;;;;;5056030;28;20200;-82
2022/02/06 04:18:09;;;;;;;1.77;0.90;;;17.70;59.20;;;;;;5072881;28;20153;-82
2022/02/06 04:20:35;;;;;;;1.70;0.93;;;17.70;59.70;;;;;;5072716;28;20160;-81
2022/02/06 04:23:01;;;;;;;1.52;1.10;;;17.60;59.70;;;;;;5088808;28;20161;-81
2022/02/06 04:25:26;;;;;;;2.20;1.17;;;17.70;59.80;;;;;;5072587;28;20197;-81
2022/02/06 04:27:53;;;;;;;0.95;0.80;;;17.60;59.70;;;;;;5055846;28;20162;-82
2022/02/06 04:30:18;;;;;;;1.65;1.08;;;17.60;59.40;;;;;;5055831;28;20259;-81
2022/02/06 04:32:44;;;;;;;2.38;1.10;;;17.60;59.40;;;;;;5089310;28;20173;-81
2022/02/06 04:35:15;;;;;;;1.23;0.70;;;17.70;59.60;;;;;;5089438;28;20217;-81
2022/02/06 04:37:56;;;;;;;1.05;0.80;;;17.70;59.20;;;;;;5056644;28;20608;-81
2022/02/06 04:40:38;;;;;;;1.65;0.98;;;17.70;59.80;;;;;;5072288;28;20157;-81
2022/02/06 04:43:43;;;;;;;1.67;1.20;;;17.60;59.80;;;;;;5072563;28;20180;-81
2022/02/06 04:51:56;;;;;;;1.33;0.80;;;17.60;59.60;;;;;;5073458;28;20650;-81
2022/02/06 04:54:33;;;;;;;1.63;0.95;;;17.60;59.50;;;;;;5058275;28;20509;-81
2022/02/06 05:21:12;;;;;;;1.13;0.90;;;17.60;59.40;;;;;;5071883;28;20203;-81
2022/02/06 05:24:21;;;;;;;2.10;1.00;;;17.60;59.50;;;;;;5057887;28;20254;-81
2022/02/06 05:29:16;;;;;;;1.52;0.93;;;17.60;59.40;;;;;;5056329;28;20260;-81
2022/02/06 05:31:58;;;;;;;1.23;0.70;;;17.60;59.60;;;;;;5024876;28;20187;-81
2022/02/06 05:34:25;;;;;;;1.88;0.75;;;17.60;59.80;;;;;;5017941;28;20208;-81
2022/02/06 05:36:52;;;;;;;1.88;1.10;;;17.60;60.10;;;;;;5041876;28;20185;-81
2022/02/06 05:39:18;;;;;;;2.38;0.90;;;17.50;60.30;;;;;;5041836;28;20218;-81
2022/02/06 05:41:45;;;;;;;1.73;1.00;;;17.50;60.40;;;;;;5008870;28;20188;-81
2022/02/06 05:44:11;;;;;;;1.80;1.02;;;17.50;60.30;;;;;;5059135;28;20165;-81
2022/02/06 05:46:37;;;;;;;1.67;1.00;;;17.50;59.80;;;;;;5058823;28;20181;-81
2022/02/06 05:49:02;;;;;;;2.15;1.10;;;17.50;60.30;;;;;;5058956;28;20158;-81
2022/02/06 05:51:28;;;;;;;2.22;1.20;;;17.50;60.10;;;;;;5092824;28;20219;-81
2022/02/06 05:53:54;;;;;;;2.15;1.20;;;17.50;60.10;;;;;;5075549;28;20162;-81
2022/02/06 05:56:19;;;;;;;1.10;0.82;;;17.60;60.00;;;;;;5075761;28;20211;-81
2022/02/06 05:58:45;;;;;;;1.52;0.90;;;17.50;59.90;;;;;;5058739;28;20173;-81
2022/02/06 06:01:11;;;;;;;1.00;0.73;;;17.50;60.20;;;;;;5058698;28;20566;-81
2022/02/06 06:03:37;;;;;;;1.58;0.70;;;17.60;60.10;;;;;;5058451;28;20252;-81
2022/02/06 06:06:03;;;;;;;1.05;0.82;;;17.50;59.60;;;;;;5040526;28;20268;-81
2022/02/06 06:08:28;;;;;;;1.20;0.73;;;17.50;60.30;;;;;;5075124;28;20161;-81
2022/02/06 06:10:54;;;;;;;1.58;1.05;;;17.50;60.30;;;;;;5075191;28;20220;-81
2022/02/06 06:13:20;;;;;;;0.90;0.80;;;17.50;60.20;;;;;;5058514;28;20150;-81
2022/02/06 06:15:46;;;;;;;1.75;0.82;;;17.60;60.20;;;;;;5058684;28;20616;-81
2022/02/06 06:18:14;;;;;;;1.25;0.80;;;17.50;60.30;;;;;;5058345;28;20241;-81
2022/02/06 06:20:42;;;;;;;1.45;0.82;;;17.50;59.90;;;;;;5041899;28;20228;-81
2022/02/06 06:23:08;;;;;;;1.52;0.80;;;17.50;60.00;;;;;;5058826;28;20237;-81
2022/02/06 06:25:38;;;;;;;1.92;0.90;;;17.50;60.20;;;;;;5058243;28;20276;-81
2022/02/06 06:28:05;;;;;;;1.08;0.80;;;17.60;59.90;;;;;;5058772;28;20141;-81
2022/02/06 06:30:30;;;;;;;1.40;0.93;;;17.50;59.80;;;;;;5058330;28;20149;-81
2022/02/06 06:32:56;;;;;;;3.13;0.90;;;17.60;59.80;;;;;;5074733;28;20158;-81
2022/02/06 06:35:22;;;;;;;1.88;1.05;;;17.60;60.10;;;;;;5041431;28;20177;-81
2022/02/06 06:37:49;;;;;;;1.80;0.82;;;17.60;59.70;;;;;;5041359;28;20539;-81
2022/02/06 06:40:15;;;;;;;2.05;1.00;;;17.60;59.50;;;;;;5058206;28;20207;-81
2022/02/06 06:42:41;;;;;;;1.77;1.02;;;17.60;60.40;;;;;;5057927;28;20582;-81
2022/02/06 06:45:08;;;;;;;1.00;0.70;;;17.60;59.80;;;;;;5056651;28;20671;-81
2022/02/06 06:47:33;;;;;;;1.60;0.80;;;17.60;59.60;;;;;;5057810;28;20161;-81
2022/02/06 06:50:03;;;;;;;1.27;0.80;;;17.60;59.60;;;;;;5075652;28;20161;-81
2022/02/06 06:52:29;;;;;;;1.58;1.00;;;17.60;59.60;;;;;;5008658;28;20576;-80
2022/02/06 06:55:01;;;;;;;1.77;1.02;;;17.60;59.40;;;;;;5040408;28;20185;-81
2022/02/06 06:57:36;;;;;;;1.38;0.80;;;17.60;59.60;;;;;;5058481;28;20145;-81
2022/02/06 07:00:21;;;;;;;2.08;1.27;;;17.60;59.40;;;;;;5058350;28;20152;-81
2022/02/06 07:02:47;;;;;;;1.60;0.90;;;17.60;59.60;;;;;;5060076;28;20150;-81
2022/02/06 07:05:13;;;;;;;2.38;1.02;;;17.60;59.70;;;;;;5075279;28;20551;-81
2022/02/06 07:07:39;;;;;;;2.67;1.10;;;17.60;59.70;;;;;;5057441;28;20181;-81
2022/02/06 07:10:06;;;;;;;1.55;1.10;;;17.60;59.40;;;;;;5040658;28;20259;-81
2022/02/06 07:12:32;;;;;;;1.23;0.90;;;17.60;59.80;;;;;;5041602;28;20178;-81
2022/02/06 07:15:00;;;;;;;1.95;0.80;;;17.60;59.50;;;;;;5057368;28;20647;-81
2022/02/06 07:17:25;;;;;;;1.83;1.05;;;17.60;59.60;;;;;;5041346;28;20192;-82
2022/02/06 07:19:52;;;;;;;0.98;0.70;;;17.60;59.80;;;;;;5057814;28;20177;-81
2022/02/06 07:22:20;;;;;;;2.60;1.20;;;17.60;59.50;;;;;;5057384;28;20387;-82
2022/02/06 07:24:47;;;;;;;1.00;0.90;;;17.60;59.70;;;;;;5074012;28;20180;-82
2022/02/06 07:27:21;;;;;;;1.02;0.70;;;17.60;59.90;;;;;;5040793;28;20215;-82
2022/02/06 07:29:48;;;;;;;1.20;0.75;;;17.60;59.80;;;;;;5041649;28;20160;-82
2022/02/06 07:32:14;;;;;;;2.20;0.80;;;17.60;59.80;;;;;;5057484;28;20685;-82
2022/02/06 07:34:40;;;;;;;1.48;0.90;;;17.60;59.80;;;;;;5040565;28;20195;-82
2022/02/06 07:37:06;;;;;;;1.27;0.90;;;17.60;59.80;;;;;;5057386;28;20180;-82
2022/02/06 07:39:33;;;;;;;1.40;0.90;;;17.60;59.80;;;;;;5040661;28;20215;-82
2022/02/06 07:41:59;;;;;;;1.85;0.98;;;17.60;59.70;;;;;;5040467;28;20218;-82
2022/02/06 07:44:25;;;;;;;1.65;0.90;;;17.60;59.70;;;;;;5040487;28;20261;-82
2022/02/06 07:47:00;;;;;;;1.20;0.85;;;17.70;59.40;;;;;;5040872;28;20208;-82
2022/02/06 07:49:27;;;;;;;0.80;0.70;;;17.60;59.70;;;;;;5074082;28;20160;-81
2022/02/06 07:51:53;;;;;;;1.88;0.93;;;17.60;59.00;;;;;;5040742;28;20259;-82
2022/02/06 07:54:19;;;;;;;1.73;1.00;;;17.60;59.40;;;;;;5040326;28;20588;-82
2022/02/06 07:56:45;;;;;;;1.55;0.73;;;17.70;59.50;;;;;;5050881;28;20177;-82
2022/02/06 07:59:12;;;;;;;1.70;1.05;;;17.70;59.40;;;;;;5092313;28;20168;-82
2022/02/06 08:01:38;;;;;;;2.25;0.98;;;17.80;58.90;;;;;;5093441;28;20171;-82
2022/02/06 08:04:07;;;;;;;1.40;0.90;;;17.90;58.60;;;;;;5093759;28;20173;-83
2022/02/06 08:06:33;;;;;;;2.40;0.70;;;17.90;58.50;;;;;;5093848;28;20192;-81
2022/02/06 08:08:58;;;;;;;3.55;1.00;;;18.00;58.70;;;;;;5092855;28;20559;-81
2022/02/06 08:11:24;;;;;;;1.40;0.70;;;18.00;57.90;;;;;;5094841;28;20175;-80
2022/02/06 08:13:54;;;;;;;1.33;0.80;;;18.10;57.90;;;;;;5094979;28;20654;-82
2022/02/06 08:16:20;;;;;;;4.30;0.90;;;18.20;58.20;;;;;;5092498;28;20264;-82
2022/02/06 08:18:46;;;;;;;2.03;0.70;;;18.20;57.50;;;;;;5110093;28;20632;-82
2022/02/06 08:21:18;;;;;;;1.63;0.93;;;18.20;57.10;;;;;;5067998;28;20209;-83
2022/02/06 08:24:30;;;;;;;4.22;1.02;;;18.30;57.40;;;;;;5035878;28;20269;-84
2022/02/06 08:26:51;;;;;;;1.30;0.77;;;18.30;56.60;;;;;;5058032;28;20245;-84
2022/02/06 08:29:23;;;;;;;4.50;1.00;;;18.30;56.70;;;;;;5018833;28;20220;-83
2022/02/06 08:32:14;;;;;;;1.35;0.70;;;18.30;56.70;;;;;;5034190;28;20190;-82
2022/02/06 08:34:41;;;;;;;2.63;1.10;;;18.30;57.00;;;;;;5051345;28;20544;-83
2022/02/06 08:37:13;;;;;;;3.00;0.70;;;18.30;56.80;;;;;;5035214;28;20227;-81
2022/02/06 08:39:40;;;;;;;1.92;0.80;;;18.40;56.70;;;;;;5019497;28;20182;-83
2022/02/06 08:42:08;;;;;;;1.23;0.75;;;18.40;56.90;;;;;;5051277;28;20606;-83
2022/02/06 08:45:00;;;;;;;1.17;0.63;;;18.40;56.00;;;;;;5051256;28;20181;-83
2022/02/06 08:47:42;;;;;;;0.65;0.60;;;18.40;56.00;;;;;;5050035;28;20189;-82
2022/02/06 08:50:28;;;;;;;1.23;0.75;;;18.50;56.30;;;;;;5050925;28;20668;-82
2022/02/06 08:52:59;;;;;;;1.65;0.70;;;18.50;56.30;;;;;;5017723;28;20192;-84
2022/02/06 08:55:27;;;;;;;3.97;0.80;;;18.60;56.30;;;;;;5047733;28;20187;-84
2022/02/06 08:57:56;;;;;;;1.50;0.90;;;18.50;56.90;;;;;;5052599;28;20182;-83
2022/02/06 09:00:30;;;;;;;4.45;1.00;;;18.50;56.50;;;;;;5051938;28;20182;-80
2022/02/06 09:02:56;;;;;;;2.83;0.80;;;18.50;56.60;;;;;;5034404;28;20239;-84
2022/02/06 09:05:25;;;;;;;2.35;0.70;;;18.60;56.50;;;;;;5035553;28;20202;-82
2022/02/06 09:07:51;;;;;;;4.32;0.90;;;18.50;56.80;;;;;;5030835;28;20191;-79
2022/02/06 09:10:19;;;;;;;10.38;1.70;;;18.60;57.50;;;;;;4998020;28;20226;-80
2022/02/06 09:12:52;;;;;;;2.65;0.77;;;18.60;56.90;;;;;;5014328;28;20190;-80
2022/02/06 09:15:22;;;;;;;3.15;0.85;;;18.70;56.40;;;;;;5014192;28;20541;-80
2022/02/06 09:18:12;;;;;;;3.90;0.85;;;18.70;56.90;;;;;;5031258;28;20199;-80
2022/02/06 09:20:38;;;;;;;2.20;0.93;;;18.70;56.30;;;;;;5003428;28;20317;-80
2022/02/06 09:23:04;;;;;;;3.03;0.82;;;18.70;56.80;;;;;;5031232;28;20262;-81
2022/02/06 09:25:30;;;;;;;2.15;1.00;;;18.70;56.20;;;;;;5020411;28;20663;-80
2022/02/06 09:27:55;;;;;;;4.80;0.90;;;18.70;56.00;;;;;;5071183;28;20181;-80
2022/02/06 09:30:25;;;;;;;1.63;0.93;;;18.70;55.80;;;;;;5038055;28;20176;-82
2022/02/06 09:37:48;;;;;;;3.03;0.98;;;18.80;56.30;;;;;;5016525;28;20182;-80
2022/02/06 09:40:15;;;;;;;1.80;0.95;;;18.80;55.50;;;;;;5034423;28;20669;-81
2022/02/06 09:42:43;;;;;;;2.97;0.88;;;18.80;55.80;;;;;;5018314;28;20197;-81
2022/02/06 09:45:11;;;;;;;2.78;0.88;;;18.80;55.70;;;;;;5033597;28;20216;-80
2022/02/06 09:47:37;;;;;;;11.65;1.05;;;18.80;56.20;;;;;;5017545;28;20715;-81
2022/02/06 09:50:04;;;;;;;1.95;0.70;;;18.80;56.40;;;;;;5017622;28;20177;-80
2022/02/06 09:52:30;;;;;;;3.65;0.88;;;18.70;56.10;;;;;;5034108;28;20189;-81
2022/02/06 09:54:59;;;;;;;3.60;1.00;;;18.80;56.20;;;;;;5034039;28;20213;-83
2022/02/06 09:57:50;;;;;;;3.33;0.82;;;18.90;56.40;;;;;;5034750;28;20182;-81
2022/02/06 10:00:16;;;;;;;4.43;0.95;;;18.80;56.80;;;;;;5022311;28;20708;-82
2022/02/06 10:02:47;;;;;;;3.10;1.15;;;18.80;56.80;;;;;;5036065;28;20521;-82
2022/02/06 10:05:16;;;;;;;7.75;1.00;;;18.80;56.90;;;;;;5035296;28;20206;-82
2022/02/06 10:07:53;;;;;;;4.13;1.10;;;18.80;56.60;;;;;;5015632;28;20178;-80
2022/02/06 10:10:19;;;;;;;3.50;1.02;;;18.80;56.30;;;;;;4995298;28;20592;-80
2022/02/06 10:12:46;;;;;;;2.25;0.95;;;18.80;56.60;;;;;;5046265;28;20174;-79
2022/02/06 10:15:14;;;;;;;4.57;1.27;;;18.80;57.10;;;;;;5029851;28;20608;-79
2022/02/06 10:17:41;;;;;;;5.80;0.80;;;18.80;56.80;;;;;;5030220;28;20209;-80
2022/02/06 10:20:33;;;;;;;3.80;0.80;;;18.80;56.90;;;;;;5033022;28;20162;-81
2022/02/06 10:23:04;;;;;;;2.90;1.05;;;18.70;57.40;;;;;;5040334;28;20178;-81
2022/02/06 10:25:31;;;;;;;5.47;0.95;;;18.70;57.30;;;;;;5087611;28;20212;-80
2022/02/06 10:28:21;;;;;;;3.10;0.98;;;18.70;57.20;;;;;;5056866;28;20205;-80
2022/02/06 10:30:51;;;;;;;5.03;0.95;;;18.70;56.60;;;;;;5055816;28;20162;-79
2022/02/06 10:33:21;;;;;;;1.60;0.70;;;18.70;57.40;;;;;;5071411;28;20663;-78
2022/02/06 10:35:51;;;;;;;3.20;0.82;;;18.70;57.00;;;;;;5088422;28;20207;-78
2022/02/06 10:38:21;;;;;;;4.60;0.80;;;18.70;56.90;;;;;;5056020;28;20162;-79
2022/02/06 10:41:04;;;;;;;3.72;1.00;;;18.70;56.40;;;;;;5088225;28;20641;-80
2022/02/06 10:43:30;;;;;;;4.57;1.27;;;18.70;56.50;;;;;;5088488;28;20185;-80
2022/02/06 10:46:10;;;;;;;2.08;0.88;;;18.70;56.80;;;;;;5087915;28;20668;-80
2022/02/06 10:48:44;;;;;;;5.95;1.05;;;18.70;57.00;;;;;;5088330;28;20233;-80
2022/02/06 10:51:10;;;;;;;2.97;0.90;;;18.70;57.00;;;;;;5057308;28;20157;-80
2022/02/06 10:53:36;;;;;;;2.78;0.82;;;18.70;56.90;;;;;;5055826;28;20166;-79
2022/02/06 10:56:04;;;;;;;2.15;0.55;;;18.70;56.60;;;;;;5055554;28;20162;-79
2022/02/06 10:58:32;;;;;;;3.47;0.70;;;18.70;56.60;;;;;;5087604;28;20567;-80
2022/02/06 11:00:59;;;;;;;1.50;0.90;;;18.70;56.90;;;;;;5055355;28;20162;-81
2022/02/06 11:03:32;;;;;;;4.28;0.77;;;18.70;56.60;;;;;;5056321;28;20156;-79
2022/02/06 11:08:37;;;;;;;4.65;1.00;;;18.70;57.20;;;;;;5055219;28;20502;-79
2022/02/06 11:11:05;;;;;;;4.72;1.05;;;18.70;56.90;;;;;;5091476;28;20742;-81
2022/02/06 11:13:32;;;;;;;5.88;1.02;;;18.70;57.50;;;;;;5111144;28;20615;-80
2022/02/06 11:16:00;;;;;;;3.05;0.95;;;18.70;57.40;;;;;;5095721;28;20171;-81
2022/02/06 11:18:33;;;;;;;1.38;0.80;;;18.70;57.40;;;;;;5077139;28;20658;-80
2022/02/06 11:21:04;;;;;;;0.98;0.70;;;18.70;57.20;;;;;;5095346;28;20168;-80
2022/02/06 11:23:47;;;;;;;1.98;0.82;;;18.70;57.00;;;;;;5111314;28;20172;-81
2022/02/06 11:26:17;;;;;;;1.35;0.70;;;18.70;57.40;;;;;;5111292;28;20265;-79
2022/02/06 11:28:43;;;;;;;1.95;0.77;;;18.70;57.10;;;;;;5110578;28;20149;-80
2022/02/06 11:31:09;;;;;;;1.75;0.70;;;18.70;57.00;;;;;;5094578;28;20149;-79
2022/02/06 11:33:35;;;;;;;4.25;1.10;;;18.70;57.30;;;;;;5110982;28;20161;-80
2022/02/06 11:36:08;;;;;;;1.67;0.80;;;18.70;57.20;;;;;;5110733;28;20642;-79
2022/02/06 11:44:25;;;;;;;3.47;1.33;;;18.80;57.10;;;;;;5108947;28;20164;-80
2022/02/06 11:47:06;;;;;;;1.95;0.65;;;18.80;57.10;;;;;;5094672;28;20184;-79
2022/02/06 11:49:34;;;;;;;2.45;0.90;;;18.80;57.20;;;;;;5110349;28;20160;-80
2022/02/06 11:52:00;;;;;;;1.90;0.63;;;18.70;57.10;;;;;;5093956;28;20198;-81
2022/02/06 11:54:30;;;;;;;1.55;0.70;;;18.80;57.10;;;;;;5094746;28;20641;-80
2022/02/06 11:57:20;;;;;;;2.55;0.80;;;18.70;56.90;;;;;;5076954;28;20187;-80
2022/02/06 12:00:19;;;;;;;1.60;0.80;;;18.80;56.80;;;;;;5110784;28;20149;-80
2022/02/06 12:02:47;;;;;;;1.45;0.70;;;18.80;57.10;;;;;;5095723;28;20164;-79
2022/02/06 12:05:14;;;;;;;4.65;1.17;;;18.80;57.00;;;;;;5094988;28;20181;-81
2022/02/06 12:08:04;;;;;;;1.60;0.90;;;18.80;56.80;;;;;;5095080;28;20153;-81
2022/02/06 12:11:07;;;;;;;4.07;1.00;;;18.80;56.80;;;;;;5094558;28;20230;-81
2022/02/06 12:13:34;;;;;;;2.50;0.60;;;18.80;57.40;;;;;;5105902;28;20161;-81
2022/02/06 12:16:04;;;;;;;2.15;0.73;;;18.80;57.30;;;;;;5094511;28;20153;-80
2022/02/06 12:18:34;;;;;;;2.00;0.80;;;18.80;56.60;;;;;;5110153;28;20161;-80
2022/02/06 12:21:13;;;;;;;3.38;0.90;;;18.80;56.50;;;;;;5076726;28;20257;-79
2022/02/06 12:23:44;;;;;;;1.95;0.65;;;18.80;56.80;;;;;;5094413;28;20156;-79
2022/02/06 12:26:40;;;;;;;1.05;0.70;;;18.80;57.10;;;;;;5109883;28;20594;-80
2022/02/06 12:29:17;;;;;;;3.85;1.00;;;18.80;57.20;;;;;;5094143;28;20159;-80
2022/02/06 12:31:58;;;;;;;3.03;1.00;;;18.80;56.90;;;;;;5094239;28;20181;-79
2022/02/06 12:37:32;;;;;;;2.08;0.90;;;18.80;56.80;;;;;;5094183;28;20160;-80
2022/02/06 12:40:00;;;;;;;1.58;0.90;;;18.80;56.60;;;;;;5109515;28;20168;-80
2022/02/06 12:42:27;;;;;;;2.42;0.75;;;18.80;57.00;;;;;;5093123;28;20245;-79
2022/02/06 12:44:56;;;;;;;2.50;0.77;;;18.80;56.60;;;;;;5109318;28;20624;-81
2022/02/06 12:47:22;;;;;;;2.83;1.05;;;18.80;56.70;;;;;;5093563;28;20201;-80
2022/02/06 12:49:48;;;;;;;2.13;0.82;;;18.80;56.70;;;;;;5109946;28;20240;-80
2022/02/06 12:52:14;;;;;;;3.80;0.93;;;18.90;57.00;;;;;;5093769;28;20186;-80
2022/02/06 12:54:40;;;;;;;2.65;0.93;;;18.80;56.80;;;;;;5093953;28;20164;-79
2022/02/06 12:57:08;;;;;;;2.08;0.82;;;18.80;56.90;;;;;;5093666;28;20157;-81
2022/02/06 12:59:34;;;;;;;1.30;0.70;;;18.80;56.90;;;;;;5093418;28;20553;-81
2022/02/06 13:02:00;;;;;;;1.92;0.80;;;18.80;56.70;;;;;;5075162;28;20619;-81
2022/02/06 13:04:29;;;;;;;1.40;0.68;;;18.80;56.60;;;;;;5093061;28;20189;-79
2022/02/06 13:07:00;;;;;;;1.75;0.70;;;18.80;56.90;;;;;;5093161;28;20216;-80
2022/02/06 13:09:31;;;;;;;1.50;0.82;;;18.80;56.90;;;;;;5093390;28;20350;-79
2022/02/06 13:12:08;;;;;;;1.33;0.88;;;18.80;56.30;;;;;;5108650;28;20184;-80
2022/02/06 13:17:36;;;;;;;1.63;0.47;;;18.80;56.40;;;;;;5106981;28;20201;-79
2022/02/06 13:20:30;;;;;;;1.85;0.70;;;18.80;56.40;;;;;;5107554;28;20184;-79
2022/02/06 13:22:59;;;;;;;1.42;0.77;;;18.80;56.60;;;;;;5093686;28;20196;-80
2022/02/06 13:25:46;;;;;;;2.15;0.70;;;18.80;56.20;;;;;;5109408;28;20184;-80
2022/02/06 13:28:31;;;;;;;1.10;0.57;;;18.80;56.60;;;;;;5109119;28;20172;-81
2022/02/06 13:33:57;;;;;;;2.25;0.70;;;18.80;56.60;;;;;;5078237;28;20179;-80
2022/02/06 13:36:38;;;;;;;1.17;0.60;;;18.80;56.60;;;;;;5093201;28;20157;-79
2022/02/06 13:39:09;;;;;;;2.03;0.80;;;18.80;56.40;;;;;;5093207;28;20153;-79
2022/02/06 13:41:35;;;;;;;1.48;0.70;;;18.80;56.20;;;;;;5093036;28;20504;-80
2022/02/06 13:44:03;;;;;;;1.83;0.73;;;18.80;55.90;;;;;;5093155;28;20330;-80
2022/02/06 13:46:32;;;;;;;2.00;0.68;;;18.80;56.10;;;;;;5108963;28;20673;-79
2022/02/06 13:48:59;;;;;;;1.50;0.70;;;18.80;56.30;;;;;;5093288;28;20283;-79
2022/02/06 13:51:39;;;;;;;1.85;0.70;;;18.80;56.40;;;;;;5108984;28;20207;-80
2022/02/06 13:54:06;;;;;;;1.88;0.82;;;18.80;56.60;;;;;;5095177;28;20156;-80
2022/02/06 13:56:33;;;;;;;1.33;0.70;;;18.80;56.30;;;;;;5098392;28;20160;-81
2022/02/06 13:59:04;;;;;;;2.05;0.80;;;18.80;56.30;;;;;;5113283;28;20161;-79
2022/02/06 14:01:51;;;;;;;1.13;0.65;;;18.80;56.20;;;;;;5097891;28;20153;-80
2022/02/06 14:04:35;;;;;;;1.40;0.65;;;18.80;56.40;;;;;;5113746;28;20643;-80
2022/02/06 14:07:16;;;;;;;1.65;0.90;;;18.80;56.60;;;;;;5097087;28;20654;-80
2022/02/06 14:09:58;;;;;;;2.80;0.70;;;18.80;56.80;;;;;;5079620;28;20223;-81
2022/02/06 14:12:25;;;;;;;2.92;0.50;;;18.80;56.50;;;;;;5111073;28;20148;-81
2022/02/06 14:14:53;;;;;;;1.05;0.75;;;18.90;56.40;;;;;;5097034;28;20157;-78
2022/02/06 14:17:21;;;;;;;1.42;0.63;;;18.80;56.30;;;;;;5097983;28;20149;-80
2022/02/06 14:19:48;;;;;;;3.45;0.73;;;18.80;56.60;;;;;;5097900;28;20165;-80
2022/02/06 14:22:27;;;;;;;1.65;0.80;;;18.80;56.70;;;;;;5098949;28;20157;-81
2022/02/06 14:24:57;;;;;;;1.77;0.80;;;18.80;56.10;;;;;;5114666;28;20149;-79
2022/02/06 14:27:38;;;;;;;1.00;0.70;;;18.90;56.20;;;;;;5098652;28;20172;-80
2022/02/06 14:30:21;;;;;;;0.85;0.65;;;18.90;56.10;;;;;;5047053;28;20271;-81
2022/02/06 14:32:57;;;;;;;1.70;0.80;;;18.90;56.50;;;;;;5112346;28;20153;-81
2022/02/06 14:35:28;;;;;;;1.48;1.00;;;18.90;56.90;;;;;;5112382;28;20171;-80
2022/02/06 14:37:57;;;;;;;2.33;0.80;;;18.90;56.40;;;;;;5097099;28;20171;-79
2022/02/06 14:40:46;;;;;;;1.27;0.80;;;18.90;56.40;;;;;;5112220;28;20164;-80
2022/02/06 14:43:12;;;;;;;2.70;0.70;;;18.90;56.50;;;;;;5110804;28;20155;-81
2022/02/06 14:45:50;;;;;;;1.10;0.70;;;18.90;56.70;;;;;;5112941;28;20184;-79
2022/02/06 14:48:20;;;;;;;0.73;0.57;;;18.90;56.10;;;;;;5097428;28;20149;-80
2022/02/06 14:50:47;;;;;;;2.33;0.88;;;18.90;55.80;;;;;;5061101;28;20234;-79
2022/02/06 14:53:13;;;;;;;1.10;0.60;;;18.90;56.70;;;;;;5097758;28;20165;-81
2022/02/06 14:55:41;;;;;;;4.13;0.85;;;18.90;56.70;;;;;;5097459;28;20188;-80
2022/02/06 14:58:08;;;;;;;1.00;0.57;;;18.90;56.30;;;;;;5097564;28;20164;-79
2022/02/06 15:00:34;;;;;;;0.90;0.60;;;18.90;55.70;;;;;;5097292;28;20164;-79
2022/02/06 15:02:59;;;;;;;1.70;0.73;;;18.90;56.70;;;;;;5112917;28;20153;-78
2022/02/06 15:05:25;;;;;;;1.95;0.60;;;18.90;56.20;;;;;;5078025;28;20211;-80